Time;durP1;ratioP1;P1;durP2;ratioP2;P2;SDS_P1;SDS_P2;PMS_P1;PMS_P2;Temp;Humidity;BMP_temperature;BMP_pressure;BME280_temperature;BME280_humidity;BME280_pressure;Samples;Min_cycle;Max_cycle;Signal;HPM_P1;HPM_P2
2024/01/18 00:01:51;;;;;;;4.50;2.90;;;1.60;84.20;;;;;;4996285;28;20027;-65
2024/01/18 00:04:17;;;;;;;5.45;3.17;;;1.60;84.20;;;;;;4995679;28;20050;-66
2024/01/18 00:06:42;;;;;;;4.55;2.85;;;1.60;84.20;;;;;;5004601;28;20596;-66
2024/01/18 00:09:08;;;;;;;4.88;3.25;;;1.60;84.30;;;;;;4999254;28;21289;-66
2024/01/18 00:11:33;;;;;;;5.10;3.00;;;1.60;84.30;;;;;;4989894;28;20039;-66
2024/01/18 00:14:00;;;;;;;5.18;3.33;;;1.50;84.30;;;;;;4988776;28;20118;-67
2024/01/18 00:16:26;;;;;;;5.78;3.20;;;1.50;84.40;;;;;;4990487;28;20032;-66
2024/01/18 00:18:51;;;;;;;4.90;3.38;;;1.50;84.40;;;;;;4999405;28;20109;-67
2024/01/18 00:21:17;;;;;;;6.03;3.45;;;1.50;84.60;;;;;;4995235;28;20026;-66
2024/01/18 00:23:42;;;;;;;5.07;3.35;;;1.50;84.60;;;;;;4999567;28;20034;-66
2024/01/18 00:26:09;;;;;;;5.53;3.58;;;1.50;84.60;;;;;;5002083;28;20042;-66
2024/01/18 00:28:35;;;;;;;6.07;3.17;;;1.50;84.60;;;;;;4991117;28;20401;-66
2024/01/18 00:31:00;;;;;;;4.95;3.38;;;1.50;84.60;;;;;;4993665;28;20034;-65
2024/01/18 00:33:26;;;;;;;5.25;3.30;;;1.50;84.80;;;;;;4990295;28;20121;-64
2024/01/18 00:35:51;;;;;;;6.80;3.40;;;1.50;84.80;;;;;;4990266;28;20050;-65
2024/01/18 00:38:17;;;;;;;5.13;3.30;;;1.50;84.60;;;;;;4998960;28;20041;-67
2024/01/18 00:40:43;;;;;;;7.78;3.90;;;1.50;84.60;;;;;;4992814;28;20022;-65
2024/01/18 00:43:09;;;;;;;5.20;3.20;;;1.50;84.60;;;;;;5001177;28;20046;-66
2024/01/18 00:45:35;;;;;;;4.60;3.05;;;1.50;84.60;;;;;;4997456;28;20087;-66
2024/01/18 00:48:00;;;;;;;5.00;3.40;;;1.50;84.60;;;;;;4997982;28;20412;-67
2024/01/18 00:50:26;;;;;;;5.50;3.45;;;1.50;84.60;;;;;;4991651;28;20030;-65
2024/01/18 00:52:51;;;;;;;5.57;3.05;;;1.40;84.50;;;;;;4989286;28;20088;-66
2024/01/18 00:55:17;;;;;;;5.70;3.45;;;1.40;84.60;;;;;;4989526;28;20083;-65
2024/01/18 00:57:43;;;;;;;5.68;3.47;;;1.40;84.60;;;;;;4991497;28;20030;-66
2024/01/18 01:00:09;;;;;;;4.82;3.17;;;1.40;84.60;;;;;;4992872;28;20170;-65
2024/01/18 01:02:34;;;;;;;4.78;3.15;;;1.50;84.60;;;;;;4990860;28;20026;-64
2024/01/18 01:05:00;;;;;;;5.15;3.33;;;1.50;84.60;;;;;;4999120;28;20101;-67
2024/01/18 01:07:25;;;;;;;4.75;3.30;;;1.50;84.60;;;;;;4992413;28;20018;-65
2024/01/18 01:09:51;;;;;;;6.35;3.53;;;1.50;84.60;;;;;;4992317;28;20088;-65
2024/01/18 01:12:17;;;;;;;5.22;3.47;;;1.50;84.60;;;;;;4989367;28;20030;-65
2024/01/18 01:14:42;;;;;;;6.68;3.83;;;1.50;84.50;;;;;;4996383;28;20026;-67
2024/01/18 01:17:08;;;;;;;6.55;3.90;;;1.40;84.50;;;;;;5004913;28;20492;-66
2024/01/18 01:19:33;;;;;;;6.30;3.88;;;1.40;84.60;;;;;;5000992;28;20539;-66
2024/01/18 01:21:59;;;;;;;5.18;3.50;;;1.40;84.80;;;;;;4999577;28;20421;-65
2024/01/18 01:24:25;;;;;;;6.40;3.75;;;1.40;84.90;;;;;;4990414;28;20554;-66
2024/01/18 01:26:51;;;;;;;6.72;3.75;;;1.40;84.80;;;;;;4994352;28;20026;-65
2024/01/18 01:29:16;;;;;;;6.43;3.60;;;1.40;84.80;;;;;;4990856;28;20121;-66
2024/01/18 01:31:42;;;;;;;6.45;4.30;;;1.40;84.70;;;;;;4990288;28;20068;-65
2024/01/18 01:34:07;;;;;;;6.03;3.75;;;1.40;84.80;;;;;;4997452;28;20363;-64
2024/01/18 01:36:33;;;;;;;6.20;4.18;;;1.30;84.90;;;;;;4996442;28;20447;-66
2024/01/18 01:38:59;;;;;;;8.52;4.07;;;1.30;84.90;;;;;;4992611;28;20018;-66
2024/01/18 01:41:24;;;;;;;7.00;4.03;;;1.30;84.90;;;;;;4988000;28;20030;-65
2024/01/18 01:44:00;;;;;;;7.38;4.30;;;1.20;84.90;;;;;;4990519;28;20508;-64
2024/01/18 01:46:26;;;;;;;6.13;3.88;;;1.20;85.00;;;;;;4991090;28;20026;-64
2024/01/18 01:48:59;;;;;;;7.18;4.32;;;1.20;85.70;;;;;;4994050;28;20025;-65
2024/01/18 01:51:26;;;;;;;7.45;4.50;;;1.20;85.10;;;;;;4986516;28;20038;-66
2024/01/18 01:53:53;;;;;;;8.40;4.97;;;1.10;85.10;;;;;;4988190;28;20034;-66
2024/01/18 01:56:20;;;;;;;8.00;5.13;;;1.10;85.10;;;;;;4997995;28;20045;-66
2024/01/18 01:58:48;;;;;;;8.30;5.50;;;1.10;85.10;;;;;;4997730;28;20499;-66
2024/01/18 02:01:13;;;;;;;8.38;4.57;;;1.10;85.20;;;;;;4988498;28;20049;-65
2024/01/18 02:03:39;;;;;;;6.65;4.47;;;1.00;85.20;;;;;;4997692;28;20512;-65
2024/01/18 02:06:05;;;;;;;6.43;4.38;;;1.00;85.30;;;;;;4987700;28;20764;-66
2024/01/18 02:08:31;;;;;;;8.07;4.60;;;1.00;85.40;;;;;;4989627;28;20084;-66
2024/01/18 02:10:58;;;;;;;6.10;4.22;;;1.00;85.30;;;;;;4993927;28;20033;-65
2024/01/18 02:13:24;;;;;;;7.03;4.30;;;1.00;85.30;;;;;;4986209;28;20041;-66
2024/01/18 02:15:50;;;;;;;7.13;4.53;;;1.00;85.40;;;;;;4988361;28;20035;-65
2024/01/18 02:18:16;;;;;;;6.47;3.80;;;0.90;85.40;;;;;;4988939;28;20446;-66
2024/01/18 02:20:41;;;;;;;6.20;4.30;;;0.90;85.50;;;;;;4995473;28;20183;-65
2024/01/18 02:23:09;;;;;;;6.80;4.10;;;0.90;85.50;;;;;;4993894;28;20037;-64
2024/01/18 02:25:36;;;;;;;5.70;3.78;;;0.90;85.50;;;;;;4994250;28;20036;-63
2024/01/18 02:28:01;;;;;;;6.63;4.13;;;0.90;85.50;;;;;;4996758;28;20058;-64
2024/01/18 02:30:27;;;;;;;6.82;4.22;;;0.90;85.50;;;;;;4988086;28;20072;-64
2024/01/18 02:32:52;;;;;;;6.90;4.03;;;0.90;86.10;;;;;;4987352;28;20030;-66
2024/01/18 02:35:19;;;;;;;6.28;4.00;;;0.80;85.40;;;;;;4990655;28;20093;-66
2024/01/18 02:37:44;;;;;;;6.93;4.80;;;0.80;85.60;;;;;;4992487;28;20126;-66
2024/01/18 02:40:11;;;;;;;6.32;3.95;;;0.80;85.60;;;;;;4991792;28;20141;-65
2024/01/18 02:42:36;;;;;;;6.70;4.13;;;0.80;85.60;;;;;;4992879;28;20504;-65
2024/01/18 02:45:03;;;;;;;5.70;3.65;;;0.80;85.70;;;;;;4995346;28;20033;-64
2024/01/18 02:47:29;;;;;;;5.35;3.97;;;0.70;85.60;;;;;;4981570;28;20525;-64
2024/01/18 02:49:56;;;;;;;7.53;4.53;;;0.70;85.70;;;;;;4987117;28;20023;-63
2024/01/18 02:52:22;;;;;;;6.72;3.92;;;0.70;85.80;;;;;;4994148;28;20555;-64
2024/01/18 02:54:47;;;;;;;7.00;4.20;;;0.70;85.90;;;;;;4994205;28;20026;-64
2024/01/18 02:57:13;;;;;;;5.65;3.67;;;0.60;85.90;;;;;;4994377;28;20374;-65
2024/01/18 02:59:38;;;;;;;6.10;3.92;;;0.60;86.00;;;;;;4990506;28;20656;-65
2024/01/18 03:02:04;;;;;;;7.30;4.40;;;0.70;86.00;;;;;;4988602;28;20384;-64
2024/01/18 03:04:31;;;;;;;6.38;4.15;;;0.60;86.00;;;;;;4994841;28;20030;-64
2024/01/18 03:06:57;;;;;;;7.03;3.95;;;0.60;86.00;;;;;;4985501;28;20350;-64
2024/01/18 03:09:22;;;;;;;6.65;4.15;;;0.60;86.00;;;;;;4991193;28;20044;-64
2024/01/18 03:11:48;;;;;;;7.00;4.13;;;0.60;86.00;;;;;;4993193;28;20394;-64
2024/01/18 03:14:13;;;;;;;6.05;3.63;;;0.60;86.00;;;;;;4992032;28;20038;-64
2024/01/18 03:16:42;;;;;;;5.95;3.75;;;0.60;86.10;;;;;;4996761;28;20110;-64
2024/01/18 03:19:12;;;;;;;7.28;4.10;;;0.60;86.00;;;;;;4990844;28;20022;-65
2024/01/18 03:21:38;;;;;;;6.63;3.83;;;0.60;86.00;;;;;;4989989;28;20142;-65
2024/01/18 03:24:04;;;;;;;5.30;3.70;;;0.60;86.00;;;;;;4989581;28;20109;-65
2024/01/18 03:26:29;;;;;;;7.05;4.18;;;0.50;86.10;;;;;;4986430;28;20520;-65
2024/01/18 03:28:55;;;;;;;6.95;4.35;;;0.50;86.20;;;;;;4985254;28;20030;-65
2024/01/18 03:31:21;;;;;;;6.55;4.00;;;0.50;86.20;;;;;;4986386;28;20027;-65
2024/01/18 03:33:46;;;;;;;6.60;4.22;;;0.50;86.30;;;;;;4991705;28;20384;-66
2024/01/18 03:36:12;;;;;;;6.35;3.97;;;0.40;86.20;;;;;;4990160;28;20030;-65
2024/01/18 03:38:37;;;;;;;5.63;3.63;;;0.40;86.30;;;;;;4991894;28;20133;-65
2024/01/18 03:41:03;;;;;;;5.78;3.63;;;0.40;86.30;;;;;;4991097;28;20030;-66
2024/01/18 03:43:29;;;;;;;6.50;4.03;;;0.40;86.30;;;;;;4989757;28;20045;-66
2024/01/18 03:45:54;;;;;;;6.82;3.65;;;0.30;86.20;;;;;;4991110;28;20505;-65
2024/01/18 03:48:20;;;;;;;6.20;4.20;;;0.30;86.30;;;;;;4989967;28;20493;-65
2024/01/18 03:50:45;;;;;;;5.78;3.90;;;0.30;86.30;;;;;;4990165;28;20041;-65
2024/01/18 03:53:11;;;;;;;6.63;3.90;;;0.30;86.30;;;;;;4991342;28;20050;-65
2024/01/18 03:55:37;;;;;;;6.10;3.80;;;0.20;86.30;;;;;;4991160;28;20053;-65
2024/01/18 03:58:03;;;;;;;6.45;3.67;;;0.20;86.40;;;;;;4990627;28;20327;-65
2024/01/18 04:00:29;;;;;;;6.80;4.03;;;0.20;86.60;;;;;;4988686;28;20061;-64
2024/01/18 04:02:54;;;;;;;6.57;3.72;;;0.10;86.60;;;;;;4991347;28;20105;-64
2024/01/18 04:05:20;;;;;;;6.28;3.75;;;0.10;86.70;;;;;;4990551;28;20630;-67
2024/01/18 04:07:45;;;;;;;6.90;3.50;;;0.10;86.90;;;;;;4990872;28;20042;-65
2024/01/18 04:10:11;;;;;;;6.07;3.75;;;0.10;87.00;;;;;;4989641;28;20076;-62
2024/01/18 04:12:37;;;;;;;6.90;4.05;;;0.10;87.00;;;;;;4990964;28;20093;-64
2024/01/18 04:15:03;;;;;;;5.30;3.30;;;0.10;86.80;;;;;;4988038;28;20030;-65
2024/01/18 04:17:29;;;;;;;5.63;4.00;;;0.10;86.80;;;;;;4988943;28;20481;-65
2024/01/18 04:19:54;;;;;;;6.60;4.32;;;0.00;86.70;;;;;;4990303;28;20014;-66
2024/01/18 04:22:22;;;;;;;6.38;4.15;;;0.00;86.70;;;;;;4990501;28;20031;-65
2024/01/18 04:24:48;;;;;;;5.47;3.78;;;-0.10;86.70;;;;;;4991070;28;20026;-65
2024/01/18 04:27:14;;;;;;;5.85;3.53;;;-0.10;86.90;;;;;;4989894;28;20034;-65
2024/01/18 04:29:40;;;;;;;6.03;4.07;;;-0.10;87.00;;;;;;4990555;28;20105;-66
2024/01/18 04:32:06;;;;;;;6.75;3.70;;;-0.10;86.90;;;;;;4990958;28;20618;-65
2024/01/18 04:34:31;;;;;;;6.85;3.97;;;-0.10;86.90;;;;;;4991476;28;20035;-66
2024/01/18 04:36:57;;;;;;;6.25;3.63;;;-0.10;86.90;;;;;;4991359;28;20057;-65
2024/01/18 04:39:22;;;;;;;5.53;3.58;;;-0.10;86.80;;;;;;4989254;28;20113;-66
2024/01/18 04:41:48;;;;;;;9.00;4.43;;;-0.10;86.80;;;;;;4990253;28;20030;-66
2024/01/18 04:44:14;;;;;;;5.35;3.30;;;-0.10;86.70;;;;;;4992463;28;20023;-66
2024/01/18 04:46:39;;;;;;;4.78;3.40;;;-0.10;86.80;;;;;;4986076;28;20080;-65
2024/01/18 04:49:05;;;;;;;4.70;3.30;;;-0.10;86.70;;;;;;4990121;28;20105;-66
2024/01/18 04:51:30;;;;;;;6.95;3.50;;;-0.10;86.60;;;;;;4991319;28;20037;-66
2024/01/18 04:53:56;;;;;;;4.85;3.22;;;-0.10;86.70;;;;;;4990503;28;20117;-66
2024/01/18 04:56:22;;;;;;;4.53;3.10;;;-0.10;86.70;;;;;;4989612;28;20030;-66
2024/01/18 04:58:48;;;;;;;5.03;3.25;;;-0.10;86.70;;;;;;4988417;28;20376;-65
2024/01/18 05:01:13;;;;;;;5.30;3.33;;;-0.10;86.60;;;;;;4992449;28;20666;-65
2024/01/18 05:03:39;;;;;;;5.28;3.25;;;-0.10;86.60;;;;;;4990730;28;20026;-65
2024/01/18 05:06:04;;;;;;;6.00;3.65;;;-0.20;86.70;;;;;;4990510;28;20030;-66
2024/01/18 05:08:30;;;;;;;5.85;3.25;;;-0.20;86.70;;;;;;4991190;28;20031;-65
2024/01/18 05:10:56;;;;;;;5.00;3.13;;;-0.10;86.80;;;;;;4989358;28;20452;-65
2024/01/18 05:13:22;;;;;;;5.30;3.42;;;-0.10;86.70;;;;;;4996200;28;20101;-65
2024/01/18 05:15:47;;;;;;;5.38;3.30;;;-0.10;86.70;;;;;;4994919;28;20113;-65
2024/01/18 05:18:16;;;;;;;5.63;3.67;;;-0.10;86.60;;;;;;4989105;28;20038;-65
2024/01/18 05:20:41;;;;;;;6.53;3.40;;;-0.10;86.60;;;;;;4991208;28;20022;-66
2024/01/18 05:23:07;;;;;;;5.13;3.47;;;-0.10;86.60;;;;;;4990408;28;20031;-65
2024/01/18 05:25:32;;;;;;;5.10;3.30;;;-0.10;86.70;;;;;;4991912;28;20587;-66
2024/01/18 05:28:00;;;;;;;4.35;3.10;;;-0.10;86.70;;;;;;4993026;28;20029;-66
2024/01/18 05:30:25;;;;;;;5.43;3.78;;;-0.10;86.70;;;;;;4989190;28;20508;-67
2024/01/18 05:32:51;;;;;;;5.25;3.40;;;-0.20;86.70;;;;;;4994767;28;20037;-65
2024/01/18 05:35:17;;;;;;;5.38;3.00;;;-0.10;86.70;;;;;;4987695;28;20045;-65
2024/01/18 05:37:42;;;;;;;4.55;3.25;;;-0.10;86.60;;;;;;4987379;28;20084;-66
2024/01/18 05:40:09;;;;;;;6.57;3.42;;;-0.10;86.70;;;;;;4989180;28;20092;-66
2024/01/18 05:42:34;;;;;;;5.45;3.53;;;-0.20;86.70;;;;;;4997170;28;20030;-66
2024/01/18 05:45:00;;;;;;;5.22;3.15;;;-0.20;86.80;;;;;;4997974;28;20033;-65
2024/01/18 05:47:26;;;;;;;4.80;3.15;;;-0.20;86.90;;;;;;4995254;28;20034;-65
2024/01/18 05:49:52;;;;;;;4.47;3.08;;;-0.20;86.90;;;;;;4994145;28;20037;-66
2024/01/18 05:52:17;;;;;;;6.10;3.05;;;-0.20;86.80;;;;;;4990191;28;20038;-65
2024/01/18 05:54:43;;;;;;;6.40;3.65;;;-0.20;86.90;;;;;;4989659;28;20030;-66
2024/01/18 05:57:09;;;;;;;5.43;3.40;;;-0.30;86.90;;;;;;4990810;28;20022;-66
2024/01/18 05:59:34;;;;;;;4.22;3.22;;;-0.30;87.10;;;;;;4991025;28;20030;-65
2024/01/18 06:02:00;;;;;;;6.35;3.40;;;-0.30;86.90;;;;;;4994427;28;20058;-66
2024/01/18 06:04:26;;;;;;;4.80;3.30;;;-0.30;86.90;;;;;;4989263;28;20197;-66
2024/01/18 06:06:51;;;;;;;4.75;2.90;;;-0.30;87.00;;;;;;4993352;28;20358;-65
2024/01/18 06:09:18;;;;;;;4.85;3.00;;;-0.30;87.00;;;;;;4988057;28;20023;-65
2024/01/18 06:11:44;;;;;;;4.00;2.58;;;-0.20;87.10;;;;;;4994337;28;20026;-65
2024/01/18 06:14:10;;;;;;;3.50;2.50;;;-0.20;87.10;;;;;;4988534;28;20022;-66
2024/01/18 06:16:36;;;;;;;5.63;2.90;;;-0.20;87.10;;;;;;4989037;28;20030;-66
2024/01/18 06:19:02;;;;;;;3.72;2.50;;;-0.20;87.00;;;;;;4992882;28;20022;-66
2024/01/18 06:21:28;;;;;;;4.50;3.03;;;-0.20;87.00;;;;;;4990705;28;20401;-66
2024/01/18 06:23:53;;;;;;;5.03;2.97;;;-0.20;87.00;;;;;;4989923;28;20120;-64
2024/01/18 06:26:19;;;;;;;4.78;2.85;;;-0.20;87.00;;;;;;4989213;28;20560;-65
2024/01/18 06:28:45;;;;;;;3.83;2.80;;;-0.20;87.10;;;;;;4992324;28;20457;-66
2024/01/18 06:31:10;;;;;;;4.00;2.65;;;-0.20;87.00;;;;;;4986391;28;20496;-66
2024/01/18 06:33:36;;;;;;;4.22;2.63;;;-0.20;87.00;;;;;;4990383;28;20038;-66
2024/01/18 06:36:02;;;;;;;3.75;2.47;;;-0.10;87.00;;;;;;4991756;28;20061;-65
2024/01/18 06:38:28;;;;;;;3.17;2.50;;;-0.10;87.00;;;;;;4990254;28;20628;-65
2024/01/18 06:40:58;;;;;;;4.35;2.47;;;-0.20;87.10;;;;;;4986849;28;20109;-65
2024/01/18 06:43:25;;;;;;;3.85;2.65;;;-0.20;87.20;;;;;;4984953;28;20054;-65
2024/01/18 06:45:55;;;;;;;3.40;2.50;;;-0.20;87.20;;;;;;4988803;28;20061;-64
2024/01/18 06:48:21;;;;;;;3.38;2.30;;;-0.20;87.20;;;;;;4983884;28;20022;-64
2024/01/18 06:50:47;;;;;;;3.50;2.47;;;-0.20;87.20;;;;;;4979755;28;20069;-66
2024/01/18 06:53:13;;;;;;;3.50;2.67;;;-0.20;87.20;;;;;;4987286;28;20061;-65
2024/01/18 06:55:38;;;;;;;5.82;2.38;;;-0.20;87.20;;;;;;4990579;28;20037;-66
2024/01/18 06:58:04;;;;;;;5.63;2.55;;;-0.20;87.30;;;;;;4994542;28;20019;-64
2024/01/18 07:00:30;;;;;;;5.22;2.67;;;-0.30;87.20;;;;;;4990861;28;20041;-66
2024/01/18 07:02:56;;;;;;;3.75;2.60;;;-0.20;87.20;;;;;;4988811;28;20019;-66
2024/01/18 07:05:21;;;;;;;4.53;2.70;;;-0.20;87.10;;;;;;4990480;28;20032;-66
2024/01/18 07:07:47;;;;;;;4.72;2.63;;;-0.20;87.20;;;;;;4986603;28;20481;-65
2024/01/18 07:10:12;;;;;;;4.15;2.60;;;-0.20;87.20;;;;;;4982290;28;20023;-66
2024/01/18 07:12:38;;;;;;;4.13;2.50;;;-0.20;87.20;;;;;;4984646;28;20026;-66
2024/01/18 07:15:04;;;;;;;6.53;2.72;;;-0.20;87.20;;;;;;4989385;28;20045;-64
2024/01/18 07:17:30;;;;;;;3.67;2.50;;;-0.30;87.20;;;;;;4992077;28;20026;-63
2024/01/18 07:19:56;;;;;;;4.45;2.80;;;-0.30;87.20;;;;;;4986149;28;20026;-65
2024/01/18 07:22:22;;;;;;;5.45;3.00;;;-0.30;87.20;;;;;;4986957;28;20054;-65
2024/01/18 07:24:48;;;;;;;4.63;3.00;;;-0.40;87.20;;;;;;4989271;28;20022;-65
2024/01/18 07:27:15;;;;;;;5.05;2.90;;;-0.40;87.40;;;;;;4995125;28;20022;-65
2024/01/18 07:29:40;;;;;;;4.72;2.90;;;-0.40;87.50;;;;;;4987725;28;20030;-65
2024/01/18 07:32:06;;;;;;;3.42;2.47;;;-0.40;87.40;;;;;;4988099;28;20076;-66
2024/01/18 07:34:35;;;;;;;3.38;2.50;;;-0.40;87.50;;;;;;4991234;28;20546;-65
2024/01/18 07:37:01;;;;;;;3.85;2.40;;;-0.50;87.40;;;;;;4991217;28;20026;-65
2024/01/18 07:39:27;;;;;;;3.45;2.28;;;-0.40;87.50;;;;;;4993805;28;20113;-65
2024/01/18 07:41:53;;;;;;;2.58;2.10;;;-0.40;87.40;;;;;;4989168;28;20089;-65
2024/01/18 07:44:19;;;;;;;3.25;2.50;;;-0.40;87.50;;;;;;4990035;28;20033;-65
2024/01/18 07:46:45;;;;;;;3.10;2.20;;;-0.30;87.50;;;;;;4981290;28;20465;-64
2024/01/18 07:49:10;;;;;;;3.13;2.40;;;-0.40;87.30;;;;;;4983890;28;20026;-66
2024/01/18 07:51:36;;;;;;;2.97;2.17;;;-0.30;87.40;;;;;;4979172;28;20362;-66
2024/01/18 07:54:01;;;;;;;4.05;2.03;;;-0.30;87.30;;;;;;4981604;28;20030;-64
2024/01/18 07:56:28;;;;;;;3.67;2.40;;;-0.30;87.30;;;;;;4986887;28;20091;-65
2024/01/18 07:58:53;;;;;;;2.83;1.95;;;-0.30;87.40;;;;;;4986697;28;20038;-66
2024/01/18 08:01:19;;;;;;;3.03;2.05;;;-0.30;87.40;;;;;;4986527;28;20026;-66
2024/01/18 08:03:44;;;;;;;3.60;2.35;;;-0.30;87.30;;;;;;4985035;28;20619;-65
2024/01/18 08:06:11;;;;;;;3.13;2.30;;;-0.30;87.30;;;;;;4984296;28;20030;-64
2024/01/18 08:08:37;;;;;;;5.28;2.20;;;-0.30;87.20;;;;;;4988062;28;20161;-65
2024/01/18 08:11:03;;;;;;;3.50;2.05;;;-0.20;87.10;;;;;;4975390;28;20049;-65
2024/01/18 08:13:28;;;;;;;2.95;2.30;;;-0.20;87.00;;;;;;4982203;28;20038;-66
2024/01/18 08:15:57;;;;;;;5.70;2.40;;;-0.20;87.00;;;;;;4981876;28;20034;-66
2024/01/18 08:18:25;;;;;;;3.90;2.67;;;-0.20;87.00;;;;;;4981810;28;20027;-66
2024/01/18 08:20:51;;;;;;;3.22;2.50;;;-0.20;87.00;;;;;;4985107;28;20037;-67
2024/01/18 08:23:18;;;;;;;4.80;2.80;;;-0.10;87.00;;;;;;4984890;28;20035;-67
2024/01/18 08:25:44;;;;;;;3.20;2.42;;;-0.20;87.00;;;;;;4987791;28;20053;-65
2024/01/18 08:28:13;;;;;;;2.95;1.90;;;-0.10;87.00;;;;;;4983453;28;20105;-66
2024/01/18 08:30:39;;;;;;;2.70;2.20;;;0.00;86.90;;;;;;4986424;28;20516;-66
2024/01/18 08:33:05;;;;;;;2.40;1.88;;;0.00;86.90;;;;;;4985605;28;20033;-66
2024/01/18 08:35:30;;;;;;;3.10;2.17;;;0.00;86.80;;;;;;4984153;28;20131;-66
2024/01/18 08:37:56;;;;;;;2.80;2.13;;;0.10;86.80;;;;;;4984433;28;20050;-64
2024/01/18 08:40:23;;;;;;;2.83;2.00;;;0.10;86.80;;;;;;4985050;28;20089;-66
2024/01/18 08:42:49;;;;;;;2.75;2.08;;;0.20;86.80;;;;;;4988405;28;20022;-65
2024/01/18 08:45:14;;;;;;;2.92;2.10;;;0.20;86.70;;;;;;4989547;28;20023;-65
2024/01/18 08:47:40;;;;;;;2.20;1.90;;;0.20;86.70;;;;;;4986989;28;20057;-66
2024/01/18 08:50:06;;;;;;;3.97;2.00;;;0.30;86.70;;;;;;4985169;28;20046;-65
2024/01/18 08:52:32;;;;;;;3.35;2.05;;;0.30;86.70;;;;;;4990293;28;20102;-66
2024/01/18 08:54:58;;;;;;;2.10;1.67;;;0.40;86.70;;;;;;4981096;28;20042;-65
2024/01/18 08:57:23;;;;;;;4.00;2.10;;;0.40;86.70;;;;;;4981736;28;20026;-66
2024/01/18 08:59:49;;;;;;;2.70;2.03;;;0.50;86.70;;;;;;4984604;28;20019;-66
2024/01/18 09:02:15;;;;;;;2.72;2.00;;;0.50;86.70;;;;;;4983461;28;20038;-65
2024/01/18 09:04:40;;;;;;;2.63;1.75;;;0.60;86.70;;;;;;4986933;28;20026;-64
2024/01/18 09:07:06;;;;;;;1.85;1.55;;;0.60;86.80;;;;;;4988381;28;20122;-66
2024/01/18 09:09:31;;;;;;;2.58;2.00;;;0.70;86.80;;;;;;4982625;28;20030;-65
2024/01/18 09:11:57;;;;;;;1.70;1.50;;;0.70;86.80;;;;;;4984322;28;20038;-66
2024/01/18 09:14:23;;;;;;;2.42;1.50;;;0.80;86.80;;;;;;4985453;28;20576;-66
2024/01/18 09:16:51;;;;;;;1.98;1.50;;;0.90;86.80;;;;;;4987230;28;20023;-66
2024/01/18 09:19:18;;;;;;;1.73;1.27;;;1.00;86.80;;;;;;4987642;28;20027;-66
2024/01/18 09:21:44;;;;;;;1.20;1.10;;;1.00;86.70;;;;;;4986713;28;20034;-66
2024/01/18 09:24:11;;;;;;;1.85;1.38;;;1.10;86.70;;;;;;4988428;28;20022;-66
2024/01/18 09:26:36;;;;;;;1.25;1.13;;;1.20;86.70;;;;;;4984082;28;20035;-67
2024/01/18 09:29:02;;;;;;;1.30;1.10;;;1.30;86.60;;;;;;4981144;28;20038;-66
2024/01/18 09:31:28;;;;;;;1.20;1.08;;;1.30;86.50;;;;;;4992911;28;20067;-66
2024/01/18 09:33:54;;;;;;;1.40;1.30;;;1.40;86.60;;;;;;4991244;28;20039;-65
2024/01/18 09:36:19;;;;;;;1.20;1.10;;;1.40;86.50;;;;;;4985225;28;20527;-67
2024/01/18 09:38:46;;;;;;;1.20;1.00;;;1.50;86.60;;;;;;4980918;28;20030;-66
2024/01/18 09:41:16;;;;;;;1.20;1.10;;;1.50;86.50;;;;;;4987507;28;20021;-66
2024/01/18 09:43:43;;;;;;;1.10;1.00;;;1.60;86.40;;;;;;4983824;28;20026;-66
2024/01/18 09:46:14;;;;;;;1.42;1.10;;;1.70;86.20;;;;;;4984170;28;20656;-66
2024/01/18 09:48:41;;;;;;;1.10;1.00;;;1.70;86.10;;;;;;4986422;28;20058;-66
2024/01/18 09:51:07;;;;;;;1.50;1.40;;;1.80;86.10;;;;;;4982826;28;20579;-67
2024/01/18 09:53:33;;;;;;;1.30;1.10;;;1.90;86.00;;;;;;4993930;28;20037;-66
2024/01/18 09:56:06;;;;;;;0.90;0.90;;;1.90;85.90;;;;;;4986986;28;20033;-66
2024/01/18 09:58:32;;;;;;;1.00;0.90;;;1.90;85.90;;;;;;4981129;28;20037;-65
2024/01/18 10:01:04;;;;;;;1.10;1.00;;;2.00;85.90;;;;;;4985325;28;20034;-66
2024/01/18 10:03:30;;;;;;;0.90;0.90;;;2.10;85.90;;;;;;4984752;28;20025;-64
2024/01/18 10:05:55;;;;;;;1.27;1.05;;;2.10;85.80;;;;;;4985941;28;20451;-65
2024/01/18 10:08:21;;;;;;;0.90;0.90;;;2.20;85.80;;;;;;4974476;28;20034;-66
2024/01/18 10:10:47;;;;;;;1.27;1.17;;;2.20;85.70;;;;;;4976688;28;20084;-66
2024/01/18 10:13:16;;;;;;;1.33;1.20;;;2.20;85.60;;;;;;4982384;28;20485;-66
2024/01/18 10:15:42;;;;;;;1.95;1.17;;;2.30;85.50;;;;;;4975962;28;20045;-66
2024/01/18 10:18:08;;;;;;;3.00;1.20;;;2.40;85.50;;;;;;4979498;28;20030;-66
2024/01/18 10:20:34;;;;;;;1.77;1.35;;;2.40;85.40;;;;;;4979814;28;20482;-65
2024/01/18 10:23:00;;;;;;;3.85;1.63;;;2.40;85.40;;;;;;4982420;28;20026;-66
2024/01/18 10:25:26;;;;;;;2.05;1.30;;;2.40;85.30;;;;;;4973573;28;20030;-65
2024/01/18 10:27:53;;;;;;;2.35;1.60;;;2.30;85.30;;;;;;4979249;28;20023;-65
2024/01/18 10:30:19;;;;;;;2.80;1.55;;;2.30;85.50;;;;;;4982165;28;20042;-65
2024/01/18 10:32:45;;;;;;;3.05;1.80;;;2.30;85.60;;;;;;4982924;28;20026;-66
2024/01/18 10:35:20;;;;;;;2.22;1.38;;;2.30;85.60;;;;;;4980142;28;20027;-64
2024/01/18 10:37:45;;;;;;;2.10;1.50;;;2.30;85.80;;;;;;4980356;28;20117;-65
2024/01/18 10:40:17;;;;;;;1.95;1.52;;;2.30;86.30;;;;;;4978896;28;20105;-65
2024/01/18 10:42:44;;;;;;;;;;;2.30;85.80;;;;;;4979667;28;20600;-66
2024/01/18 10:45:11;;;;;;;2.45;1.80;;;2.30;85.70;;;;;;4975643;28;19914;-66
2024/01/18 10:47:37;;;;;;;3.55;2.00;;;2.40;85.70;;;;;;4983464;28;20022;-67
2024/01/18 10:50:05;;;;;;;3.75;2.20;;;2.40;85.70;;;;;;4980218;28;20243;-65
2024/01/18 10:52:31;;;;;;;3.40;2.00;;;2.40;85.60;;;;;;4981177;28;20515;-64
2024/01/18 10:54:58;;;;;;;3.10;2.05;;;2.40;85.60;;;;;;4982518;28;20026;-66
2024/01/18 10:57:24;;;;;;;4.28;2.20;;;2.50;85.70;;;;;;4981815;28;20109;-67
2024/01/18 10:59:52;;;;;;;3.85;2.28;;;2.50;85.60;;;;;;4981258;28;20030;-66
2024/01/18 11:02:18;;;;;;;3.15;1.98;;;2.50;86.20;;;;;;4982942;28;20413;-66
2024/01/18 11:04:46;;;;;;;3.88;1.80;;;2.60;85.50;;;;;;4986043;28;20030;-66
2024/01/18 11:07:13;;;;;;;2.13;1.60;;;2.70;85.50;;;;;;4975154;28;20425;-66
2024/01/18 11:09:39;;;;;;;3.17;1.60;;;2.80;85.40;;;;;;4977229;28;20033;-66
2024/01/18 11:12:07;;;;;;;2.00;1.48;;;2.90;85.40;;;;;;4974866;28;20031;-65
2024/01/18 11:14:33;;;;;;;2.45;1.60;;;2.90;85.30;;;;;;4981480;28;20101;-67
2024/01/18 11:17:10;;;;;;;2.03;1.40;;;3.00;85.20;;;;;;4978221;28;20034;-65
2024/01/18 11:19:44;;;;;;;4.15;1.95;;;3.10;85.10;;;;;;4976646;28;20485;-66
2024/01/18 11:22:28;;;;;;;2.95;1.70;;;3.10;85.00;;;;;;4977320;28;20664;-66
2024/01/18 11:25:03;;;;;;;3.85;1.92;;;3.20;85.00;;;;;;4977982;28;20061;-64
2024/01/18 11:27:38;;;;;;;2.88;2.00;;;3.20;84.80;;;;;;4983746;28;20533;-65
2024/01/18 11:30:11;;;;;;;1.67;1.40;;;3.30;84.80;;;;;;4982281;28;20058;-66
2024/01/18 11:32:38;;;;;;;2.03;1.60;;;3.30;84.60;;;;;;4970657;28;20026;-67
2024/01/18 11:35:11;;;;;;;3.30;2.13;;;3.40;84.60;;;;;;4978019;28;20039;-65
2024/01/18 11:37:37;;;;;;;2.15;1.60;;;3.50;84.50;;;;;;5015848;28;20030;-66
2024/01/18 11:40:06;;;;;;;4.03;1.60;;;3.50;84.40;;;;;;4981610;28;20023;-67
2024/01/18 11:42:33;;;;;;;2.28;1.50;;;3.60;84.30;;;;;;4978532;28;20037;-65
2024/01/18 11:45:03;;;;;;;2.38;1.40;;;3.70;84.30;;;;;;4978891;28;20115;-66
2024/01/18 11:47:31;;;;;;;2.58;1.60;;;3.70;84.20;;;;;;4970999;28;20041;-66
2024/01/18 11:49:57;;;;;;;2.95;1.40;;;3.80;84.10;;;;;;4977495;28;20520;-66
2024/01/18 11:52:23;;;;;;;3.10;1.50;;;3.90;84.00;;;;;;4985655;28;20030;-66
2024/01/18 11:54:55;;;;;;;2.42;1.30;;;4.00;83.90;;;;;;4988822;28;20463;-66
2024/01/18 11:57:22;;;;;;;1.92;1.20;;;4.00;83.70;;;;;;4990118;28;20029;-66
2024/01/18 11:59:48;;;;;;;2.42;1.25;;;4.10;83.60;;;;;;4991291;28;20030;-66
2024/01/18 12:02:14;;;;;;;2.50;1.20;;;4.20;83.60;;;;;;4989889;28;20501;-66
2024/01/18 12:04:40;;;;;;;1.20;1.10;;;4.30;83.40;;;;;;4990433;28;20045;-65
2024/01/18 12:07:07;;;;;;;1.23;1.13;;;4.40;83.40;;;;;;4990920;28;20026;-65
2024/01/18 12:09:34;;;;;;;1.15;0.93;;;4.50;83.20;;;;;;4990808;28;20100;-66
2024/01/18 12:12:00;;;;;;;1.58;1.15;;;4.60;82.90;;;;;;4991130;28;20442;-65
2024/01/18 12:14:26;;;;;;;1.73;1.10;;;4.60;82.70;;;;;;4989603;28;20026;-64
2024/01/18 12:16:53;;;;;;;1.52;1.13;;;4.70;82.40;;;;;;4991273;28;20092;-66
2024/01/18 12:19:33;;;;;;;1.20;0.98;;;4.80;82.30;;;;;;4990009;28;20031;-66
2024/01/18 12:22:01;;;;;;;1.52;1.08;;;4.90;82.30;;;;;;4991168;28;20019;-65
2024/01/18 12:24:26;;;;;;;2.40;1.02;;;5.10;81.90;;;;;;4989265;28;20105;-65
2024/01/18 12:26:52;;;;;;;1.38;1.17;;;5.70;81.10;;;;;;4988975;28;20497;-64
2024/01/18 12:29:19;;;;;;;2.30;1.45;;;5.70;79.70;;;;;;4989998;28;20065;-66
2024/01/18 12:31:48;;;;;;;2.47;1.52;;;5.50;79.70;;;;;;4991041;28;20034;-66
2024/01/18 12:34:15;;;;;;;2.40;1.50;;;5.30;80.00;;;;;;4989319;28;20038;-66
2024/01/18 12:36:43;;;;;;;1.95;1.30;;;5.20;81.00;;;;;;4990353;28;20080;-66
2024/01/18 12:39:09;;;;;;;1.20;1.10;;;5.40;82.60;;;;;;4989629;28;20026;-68
2024/01/18 12:41:35;;;;;;;1.27;1.00;;;6.90;81.70;;;;;;4989393;28;20125;-67
2024/01/18 12:44:06;;;;;;;1.50;1.30;;;8.20;78.20;;;;;;4988497;28;20140;-69
2024/01/18 12:46:34;;;;;;;1.30;1.20;;;9.10;75.50;;;;;;4991119;28;20026;-67
2024/01/18 12:49:00;;;;;;;3.13;1.10;;;9.70;74.20;;;;;;4989412;28;20042;-67